Fort Wayne, IN

5:43 PM EDT on April 19, 2015 (GMT -0400)
Fort Wayne International | | Change Station
CLOSE
Current Station
Airport
Location: Fort Wayne,
Elevation: 827 ft
Nearby Weather Stations

Elev 827 ft 40.98 °N, 85.19 °W | Updated 11 minutes ago

Rain
Rain
51 °F
Feels Like 51 °F
N
20
Wind Variable Wind from ENE

Today
High -- | Low -- °F
--% Chance of Precip.
Yesterday
High -- | Low -- °F
Precip. -- in
6:55 AM 8:24 PM
New Moon, 2% visible
Pressure 29.55 in
Visibility 1.5 miles
Clouds Mostly Cloudy 800 ft
Overcast 1300 ft
Dew Point 49 °F
Humidity 92%
Rainfall 0.31 in
Snow Depth Not available.
UV 1 out of 12
Pollen 5.70 out of 12
Air Quality Not available.
Flu Activity Local Activity
SPECI KFWA 192132Z 06017KT 1 1/2SM -RA BR BKN008 OVC013 11/09 A2955 RMK AO2 CIG 006V010 P0003 T01060094

More Conditions Fewer Conditions

Pressure 29.55 in
Visibility 1.5 miles
Clouds Mostly Cloudy 800 ft
Overcast 1300 ft
Dew Point 49 °F
Humidity 92%
Rainfall 0.31 in
Snow Depth Not available.
UV 1 out of 12
Pollen 5.70 out of 12
Air Quality Not available.
Flu Activity Local Activity
SPECI KFWA 192132Z 06017KT 1 1/2SM -RA BR BKN008 OVC013 11/09 A2955 RMK AO2 CIG 006V010 P0003 T01060094

More Conditions Fewer Conditions

10-Day Weather Forecast

Almanac

Astronomy

Apr. 19, 2015 Rise Set
Actual Time
Civil Twilight
Nautical Twilight
Astronomical Twilight
Moon
Length of Visible Light
Length of Day
Tomorrow will be .
, % of the Moon is Illuminated

Today's Extremes

State Highs State Lows

Community

WunderPhotos

Upload Photos

1,814,994 photos uploaded!

WunderBlogs® & News

Nearby

Air Quality

  Air Quality AQ Index Pollutant
Not available.

Snow Depth

Station Depth Elevation

Earthquake Activity

City Distance Mag. Time & Date
Minimum magnitude displayed is 2.5.

Coastal Water Temperatures

Place Temperature

Stations

Nearby Weather Stations

Station Location Temp. Windchill Dew Point Humidity Wind Precip. Elev Updated Type